Strona główna
METAR-TAF:

METAR-TAF

Lotnisko :

Port lotniczy Sztokholm-Arlanda

Sztokholm-Arlanda, Szwecja

Szerokość geograficzna: 59-39N, Długość geograficzna: 017-57E, wysokość: 38 m

Aktualna obserwacja pogody

Raport powstał 34 minut temu, godzina 12:20 UTC
Wiatr 6 kt od zachód
Temperatura 7°C
Wilgotność 81%
Ciśnienie 1037 hPa
Widzialność 10 km lub więcej
Brak chmur poniżej 1500 m i brak chmur cumulonimbus

METAR: ESSA 171220Z 27006KT CAVOK 07/04 Q1037 R01L/0///95 R08/0///95 R01R/0///95 NOSIG

czas: 13:54 (12:54 UTC)

Prognoza

Raport powstał 1 godzina i 24 minut temu, godzina 11:30 UTC
Prognoza ważna od 17 godzina 12 UTC do 18 godzina 12 UTC
Wiatr 7 kt od zachód
Widzialność 10 km lub więcej
Brak chmur poniżej 1500 m i brak chmur cumulonimbus
Stopniowe zmiany
od 17 godzina 14 UTC do 17 godzina 17 UTC
Wiatr 10 kt od północno-północny zachód
Przejściowo
od 18 godzina 06 UTC do 18 godzina 09 UTC
Przerywane chmury na wysokości 1400 ft

TAF: ESSA 171130Z 1712/1812 27007KT CAVOK BECMG 1714/1717 33010KT TEMPO 1806/1809 BKN014

Obserwacja i prognoza pogody dla ponad 4000 lotnisk (raport METAR i TAF).

Dostępne stacje oznaczono żółtymi i czerwonymi punktami na mapie.

Najedź kursorem aby zobaczyć nazwę stacji.

Kliknij aby zobaczyć obserwacje i prognozy pogody.

Aby zmienić mapę: kliknij na zielony przycisk z czarnym krzyżykiem, aby powiększyć; na zielony przycisk z myślnikiem, aby pomniejszyć; na zielone strzałki, aby przejść do map sąsiednich.


METAR-TAF: